LRBS/BBU METAR and TAF weather

Enter ICAO airport designator
Station Type Date Time Source
LRBS METAR 2018/12/13 09:30 UTC NOAA

LRBS 130930Z 22007KT 200V260 3000 BR OVC002 M01/M01 Q1019 R07/29//95 NOSIG


Station Type Date Time Source
LRBS Decoded METAR 2018/12/13 09:30 UTC NOAA

Bucuresti / Imh, Romania (LRBS) 44-30N 026-08E 91M
Dec 13, 2018 - 04:30 AM EST / 2018.12.13 0930 UTC
Wind: from the SW (220 degrees) at 8 MPH (7 KT) (direction variable):0
Visibility: 1 mile(s):0
Sky conditions: overcast
Weather: mist
Temperature: 30 F (-1 C)
Windchill: 23 F (-5 C):1
Dew Point: 30 F (-1 C)
Relative Humidity: 100%
Pressure (altimeter): 30.09 in. Hg (1019 hPa)
ob: LRBS 130930Z 22007KT 200V260 3000 BR OVC002 M01/M01 Q1019 R07/29//95 NOSIG
cycle: 9

Station Type Date Time Source
LRBS TAF 2018/12/13 06:33 UTC NOAA

TAF TAF LRBS 130500Z 1306/1406 26010KT 0400 FZFG OVC001
BECMG 1306/1308 1500 BR BKN005
BECMG 1308/1310 5000 SCT005 BKN020
BECMG 1318/1320 3000 BR
BECMG 1320/1322 1500 BR
TEMPO 1323/1406 0600 FZFG BKN002
BECMG 1400/1402 VRB03KT


Example: see airport list